Time;durP1;ratioP1;P1;durP2;ratioP2;P2;SDS_P1;SDS_P2;PMS_P1;PMS_P2;Temp;Humidity;BMP_temperature;BMP_pressure;BME280_temperature;BME280_humidity;BME280_pressure;Samples;Min_cycle;Max_cycle;Signal;HPM_P1;HPM_P2
2022/08/12 00:44:53;;;;;;;0.00;0.00;;;22.50;60.70;;;;;;4878089;29;20033;-66
2022/08/12 00:47:20;;;;;;;0.10;0.00;;;22.50;60.30;;;;;;4879125;29;20033;-66
2022/08/12 00:49:50;;;;;;;0.05;0.05;;;22.60;59.80;;;;;;4877946;29;20553;-66
2022/08/12 00:52:19;;;;;;;0.00;0.00;;;22.70;60.00;;;;;;4877818;29;20033;-66
2022/08/12 00:54:58;;;;;;;0.00;0.00;;;22.80;59.50;;;;;;4879141;29;20048;-66
2022/08/12 00:57:31;;;;;;;0.00;0.00;;;22.80;59.40;;;;;;4878576;29;20139;-65
2022/08/12 01:00:27;;;;;;;0.00;0.00;;;22.90;59.50;;;;;;4877709;29;20032;-66
2022/08/12 01:02:57;;;;;;;0.00;0.00;;;22.90;59.30;;;;;;4870255;29;20682;-66
2022/08/12 01:13:48;;;;;;;0.10;0.10;;;22.90;59.90;;;;;;4897061;29;20040;-66
2022/08/12 01:16:21;;;;;;;0.10;0.10;;;22.90;60.10;;;;;;4883740;29;20033;-66
2022/08/12 01:18:48;;;;;;;0.05;0.05;;;22.90;59.90;;;;;;4877069;29;20021;-66
2022/08/12 01:21:26;;;;;;;0.10;0.10;;;22.90;60.20;;;;;;4877695;29;20025;-66
2022/08/12 01:24:46;;;;;;;2.40;0.75;;;22.80;59.70;;;;;;4884437;29;20044;-65
2022/08/12 01:27:14;;;;;;;1.48;1.23;;;22.90;60.00;;;;;;4897502;29;20068;-66
2022/08/12 01:29:47;;;;;;;0.20;0.20;;;22.80;60.10;;;;;;4895478;29;20036;-66
2022/08/12 01:32:14;;;;;;;0.10;0.10;;;22.80;60.10;;;;;;4897436;29;20044;-65
2022/08/12 01:35:11;;;;;;;0.20;0.10;;;22.80;60.00;;;;;;4895826;29;20037;-65
2022/08/12 01:38:03;;;;;;;0.00;0.00;;;22.80;60.10;;;;;;4878310;29;20045;-66
2022/08/12 01:40:42;;;;;;;0.10;0.05;;;22.90;60.30;;;;;;4892590;29;20112;-66
2022/08/12 01:43:14;;;;;;;0.40;0.40;;;22.80;60.70;;;;;;4876655;29;20033;-66
2022/08/12 01:46:07;;;;;;;0.00;0.00;;;22.80;61.00;;;;;;4877057;29;20094;-66
2022/08/12 01:48:58;;;;;;;0.40;0.40;;;22.80;61.20;;;;;;4876745;29;20044;-65
2022/08/12 01:51:43;;;;;;;0.10;0.10;;;22.70;61.10;;;;;;4877212;29;20029;-66
2022/08/12 01:54:15;;;;;;;0.03;0.03;;;22.80;60.70;;;;;;4876257;29;20386;-66
2022/08/12 01:56:50;;;;;;;0.10;0.10;;;22.90;60.40;;;;;;4918663;23;20051;-70
2022/08/12 02:00:03;;;;;;;0.00;0.00;;;22.90;60.40;;;;;;4942564;29;20075;-70
2022/08/12 02:02:29;;;;;;;0.65;0.25;;;22.90;60.30;;;;;;4919387;29;20035;-70
2022/08/12 02:11:31;;;;;;;0.30;0.20;;;22.90;60.60;;;;;;4901126;29;20032;-72
2022/08/12 02:14:18;;;;;;;0.30;0.22;;;22.80;60.90;;;;;;4898018;29;20035;-71
2022/08/12 02:16:59;;;;;;;0.00;0.00;;;22.80;60.90;;;;;;4900893;29;20060;-71
2022/08/12 02:20:03;;;;;;;0.00;0.00;;;22.80;60.70;;;;;;4914998;29;20032;-70
2022/08/12 02:22:37;;;;;;;0.28;0.20;;;22.70;60.90;;;;;;4914747;29;20047;-71
2022/08/12 02:25:06;;;;;;;0.20;0.20;;;22.60;61.30;;;;;;4913913;29;20075;-70
2022/08/12 02:27:45;;;;;;;1.35;0.98;;;22.50;61.30;;;;;;4914900;29;20086;-70
2022/08/12 02:30:19;;;;;;;0.80;0.80;;;22.60;61.60;;;;;;4897942;29;20031;-70
2022/08/12 02:32:48;;;;;;;0.00;0.00;;;22.60;61.60;;;;;;4914698;29;20043;-70
2022/08/12 02:35:21;;;;;;;0.20;0.20;;;22.60;61.20;;;;;;4914840;29;20404;-70
2022/08/12 02:37:51;;;;;;;0.20;0.20;;;22.50;61.50;;;;;;4914876;29;20035;-70
2022/08/12 02:40:19;;;;;;;1.83;0.88;;;22.60;62.00;;;;;;4913383;29;20055;-70
2022/08/12 02:43:11;;;;;;;0.00;0.00;;;22.50;62.10;;;;;;4913405;29;20175;-70
2022/08/12 02:46:05;;;;;;;0.20;0.20;;;22.40;62.20;;;;;;4914839;29;20028;-70
2022/08/12 02:48:50;;;;;;;0.00;0.00;;;22.30;62.60;;;;;;4915605;29;20032;-70
2022/08/12 02:51:29;;;;;;;1.30;0.35;;;22.30;62.80;;;;;;4918762;29;20032;-70
2022/08/12 02:54:04;;;;;;;0.10;0.10;;;22.30;63.10;;;;;;4917033;29;20031;-70
2022/08/12 02:56:31;;;;;;;0.25;0.25;;;22.20;63.00;;;;;;4917507;29;20028;-70
2022/08/12 02:58:59;;;;;;;0.00;0.00;;;22.10;63.10;;;;;;4918322;29;20032;-70
2022/08/12 03:01:33;;;;;;;0.55;0.30;;;22.10;63.20;;;;;;4917290;29;20091;-70
2022/08/12 03:04:06;;;;;;;0.30;0.30;;;22.10;63.50;;;;;;4918200;29;20036;-70
2022/08/12 03:06:39;;;;;;;0.30;0.30;;;22.00;63.40;;;;;;4917327;29;20032;-70
2022/08/12 03:09:10;;;;;;;0.20;0.15;;;22.00;63.70;;;;;;4917972;29;20481;-70
2022/08/12 03:12:06;;;;;;;0.05;0.05;;;22.00;63.40;;;;;;4917182;29;20091;-70
2022/08/12 03:14:34;;;;;;;0.00;0.00;;;22.00;63.50;;;;;;4908656;29;20044;-70
2022/08/12 03:17:44;;;;;;;0.10;0.10;;;22.00;63.80;;;;;;4937363;29;20052;-70
2022/08/12 03:20:14;;;;;;;0.10;0.10;;;22.10;63.70;;;;;;4920640;29;20039;-70
2022/08/12 03:22:44;;;;;;;0.10;0.10;;;22.10;63.90;;;;;;4920619;29;20123;-70
2022/08/12 03:25:34;;;;;;;0.00;0.00;;;22.00;64.30;;;;;;4936546;29;20074;-70
2022/08/12 03:28:02;;;;;;;0.83;0.67;;;21.90;64.90;;;;;;4905624;29;20027;-70
2022/08/12 03:30:31;;;;;;;0.00;0.00;;;21.60;65.20;;;;;;4919977;29;20027;-70
2022/08/12 03:33:00;;;;;;;0.00;0.00;;;21.50;65.60;;;;;;4920007;29;20102;-71
2022/08/12 03:35:31;;;;;;;0.17;0.17;;;21.50;65.90;;;;;;4920383;29;20055;-70
2022/08/12 03:38:07;;;;;;;0.10;0.03;;;21.30;66.00;;;;;;4912634;29;20090;-70
2022/08/12 04:00:47;;;;;;;0.00;0.00;;;22.00;63.90;;;;;;4915858;29;20172;-67
2022/08/12 04:05:58;;;;;;;0.00;0.00;;;22.00;63.90;;;;;;4908550;29;20107;-67
2022/08/12 04:08:25;;;;;;;0.10;0.10;;;22.00;63.90;;;;;;4927875;29;20252;-67
2022/08/12 04:13:39;;;;;;;0.65;0.50;;;21.90;64.40;;;;;;4925685;29;20043;-66
2022/08/12 04:16:09;;;;;;;0.08;0.08;;;21.90;64.70;;;;;;4918718;29;20028;-67
2022/08/12 04:18:37;;;;;;;0.22;0.13;;;21.90;64.80;;;;;;4919081;29;20028;-66
2022/08/12 04:21:11;;;;;;;0.35;0.35;;;21.90;65.10;;;;;;4919046;29;20028;-66
2022/08/12 04:23:41;;;;;;;0.13;0.10;;;21.80;65.10;;;;;;4935680;29;20070;-65
2022/08/12 04:26:07;;;;;;;0.05;0.05;;;21.80;65.10;;;;;;4935500;29;20039;-66
2022/08/12 04:28:34;;;;;;;0.00;0.00;;;21.70;65.50;;;;;;4935808;29;20042;-67
2022/08/12 04:31:00;;;;;;;0.63;0.60;;;21.60;65.90;;;;;;4935454;29;20047;-65
2022/08/12 04:33:26;;;;;;;4.97;1.67;;;21.60;66.30;;;;;;4918341;29;20043;-59
2022/08/12 04:35:53;;;;;;;1.75;0.38;;;21.70;69.40;;;;;;4935623;29;20547;-59
2022/08/12 04:38:20;;;;;;;1.25;0.85;;;21.60;67.50;;;;;;4935867;29;20047;-59
2022/08/12 04:40:46;;;;;;;0.10;0.10;;;21.50;66.60;;;;;;4918228;29;20031;-59
2022/08/12 04:43:12;;;;;;;0.45;0.17;;;21.60;66.90;;;;;;4918223;29;20031;-60
2022/08/12 04:45:39;;;;;;;0.20;0.10;;;21.40;66.90;;;;;;4935706;29;20076;-60
2022/08/12 04:48:06;;;;;;;0.15;0.08;;;21.40;67.40;;;;;;4912920;29;20040;-59
2022/08/12 04:50:32;;;;;;;0.00;0.00;;;21.20;68.70;;;;;;4923634;29;20020;-59
2022/08/12 04:52:59;;;;;;;0.30;0.30;;;21.20;68.30;;;;;;4865328;29;20523;-59
2022/08/12 04:55:27;;;;;;;0.43;0.43;;;21.30;68.40;;;;;;4915383;29;20036;-60
2022/08/12 04:57:54;;;;;;;1.25;0.20;;;21.20;68.30;;;;;;4916102;29;20036;-60
2022/08/12 05:00:20;;;;;;;0.00;0.00;;;21.20;68.80;;;;;;4916029;29;20408;-60
2022/08/12 05:02:46;;;;;;;0.05;0.03;;;21.00;69.00;;;;;;4915783;29;20500;-59
2022/08/12 05:05:19;;;;;;;0.10;0.10;;;20.90;69.40;;;;;;4916242;29;20079;-59
2022/08/12 05:07:49;;;;;;;0.15;0.10;;;20.90;69.70;;;;;;4916538;29;20087;-59
2022/08/12 05:10:17;;;;;;;1.30;1.20;;;21.00;69.60;;;;;;4915816;29;20083;-59
2022/08/12 05:12:50;;;;;;;0.57;0.43;;;21.10;69.70;;;;;;4915596;29;20056;-59
2022/08/12 05:15:16;;;;;;;0.30;0.30;;;21.10;69.70;;;;;;4907525;29;20028;-59
2022/08/12 05:17:42;;;;;;;0.08;0.08;;;21.00;69.60;;;;;;4934713;29;20086;-59
2022/08/12 05:20:15;;;;;;;0.32;0.28;;;20.90;69.70;;;;;;4934850;29;20083;-59
2022/08/12 05:22:44;;;;;;;0.08;0.08;;;20.90;69.90;;;;;;4934665;29;20032;-59
2022/08/12 05:25:12;;;;;;;0.60;0.60;;;20.80;69.80;;;;;;4918288;29;20066;-59
2022/08/12 05:27:40;;;;;;;0.45;0.38;;;20.80;69.70;;;;;;4932565;29;20035;-59
2022/08/12 05:30:07;;;;;;;0.00;0.00;;;20.80;69.90;;;;;;4934228;29;20042;-59
2022/08/12 05:32:34;;;;;;;0.20;0.20;;;20.80;70.10;;;;;;4932034;29;20059;-59
2022/08/12 05:35:05;;;;;;;0.98;0.63;;;20.70;70.10;;;;;;4934094;29;20050;-59
2022/08/12 05:37:33;;;;;;;3.25;1.48;;;20.80;70.00;;;;;;4934888;29;20378;-60
2022/08/12 05:39:59;;;;;;;0.15;0.03;;;20.90;69.50;;;;;;4924846;29;20106;-59
2022/08/12 05:42:25;;;;;;;0.00;0.00;;;20.90;69.20;;;;;;4915005;29;20032;-59
2022/08/12 05:44:51;;;;;;;0.45;0.38;;;20.90;68.70;;;;;;4930739;29;20360;-60
2022/08/12 05:47:17;;;;;;;1.85;0.80;;;21.00;68.80;;;;;;4933508;29;20027;-59
2022/08/12 05:49:43;;;;;;;0.40;0.40;;;21.10;68.80;;;;;;4916470;29;20027;-59
2022/08/12 05:52:08;;;;;;;0.00;0.00;;;21.30;68.70;;;;;;4916884;29;20031;-60
2022/08/12 05:54:37;;;;;;;0.00;0.00;;;21.40;68.30;;;;;;4932167;29;20071;-59
2022/08/12 05:57:03;;;;;;;1.08;0.98;;;21.50;68.70;;;;;;4914375;29;20083;-60
2022/08/12 05:59:29;;;;;;;0.00;0.00;;;21.60;68.00;;;;;;4913934;29;20040;-59
2022/08/12 06:02:06;;;;;;;0.17;0.10;;;21.80;67.60;;;;;;4921891;29;20035;-59
2022/08/12 06:04:33;;;;;;;0.10;0.10;;;21.90;67.30;;;;;;4918721;29;20102;-59
2022/08/12 06:07:00;;;;;;;0.08;0.08;;;22.10;66.70;;;;;;4916904;29;20039;-59
2022/08/12 06:09:29;;;;;;;0.00;0.00;;;22.20;66.40;;;;;;4933692;29;20050;-60
2022/08/12 06:11:56;;;;;;;0.20;0.20;;;22.30;66.30;;;;;;4917087;29;20178;-60
2022/08/12 06:14:22;;;;;;;0.13;0.08;;;22.40;65.70;;;;;;4933963;29;20031;-60
2022/08/12 06:16:50;;;;;;;0.35;0.10;;;22.50;65.90;;;;;;4934263;29;20037;-60
2022/08/12 06:19:17;;;;;;;0.03;0.03;;;22.60;65.90;;;;;;4917036;29;20562;-60
2022/08/12 06:21:44;;;;;;;0.70;0.47;;;22.70;65.70;;;;;;4933705;29;20485;-60
2022/08/12 06:24:12;;;;;;;4.18;0.55;;;22.70;65.10;;;;;;4933454;29;20131;-60
2022/08/12 06:26:38;;;;;;;0.10;0.10;;;22.80;65.10;;;;;;4933709;29;20032;-60
2022/08/12 06:29:04;;;;;;;3.10;0.75;;;22.90;65.00;;;;;;4933261;29;20095;-60
2022/08/12 06:31:29;;;;;;;0.10;0.10;;;22.90;64.50;;;;;;4916796;29;20086;-60
2022/08/12 06:33:55;;;;;;;2.35;0.98;;;23.00;64.90;;;;;;4900485;29;20040;-59
2022/08/12 06:36:22;;;;;;;0.10;0.10;;;23.10;64.40;;;;;;4933872;29;20376;-59
2022/08/12 06:38:48;;;;;;;0.10;0.10;;;23.20;64.90;;;;;;4916766;29;20063;-58
2022/08/12 06:43:59;;;;;;;0.00;0.00;;;23.30;64.30;;;;;;4918892;29;20071;-58
2022/08/12 06:46:27;;;;;;;0.10;0.10;;;23.30;64.20;;;;;;4933742;29;20086;-58
2022/08/12 06:48:57;;;;;;;1.75;0.45;;;23.40;64.00;;;;;;4933339;29;20054;-58
2022/08/12 06:51:29;;;;;;;1.27;0.30;;;23.40;64.00;;;;;;4933537;29;20063;-58
2022/08/12 06:53:56;;;;;;;0.38;0.17;;;23.40;64.40;;;;;;4916315;29;20309;-58
2022/08/12 06:56:22;;;;;;;0.28;0.28;;;23.40;64.40;;;;;;4933470;29;20383;-59
2022/08/12 06:58:48;;;;;;;0.10;0.10;;;23.40;64.10;;;;;;4915832;29;20087;-58
2022/08/12 07:01:16;;;;;;;0.65;0.65;;;23.40;64.10;;;;;;4933765;29;20031;-58
2022/08/12 07:03:41;;;;;;;0.30;0.28;;;23.40;64.50;;;;;;4916000;29;20090;-58
2022/08/12 07:06:10;;;;;;;0.75;0.63;;;23.40;64.50;;;;;;4933624;29;20035;-60
2022/08/12 07:08:37;;;;;;;0.00;0.00;;;23.50;64.50;;;;;;4933411;29;20035;-59
2022/08/12 07:11:05;;;;;;;0.10;0.10;;;23.60;64.00;;;;;;4927879;29;20440;-60
2022/08/12 07:13:37;;;;;;;0.00;0.00;;;23.70;63.80;;;;;;4917530;29;20035;-61
2022/08/12 07:16:05;;;;;;;0.20;0.15;;;23.80;63.40;;;;;;4884118;29;20156;-60
2022/08/12 07:18:32;;;;;;;0.22;0.22;;;23.80;63.30;;;;;;4931301;29;20062;-60
2022/08/12 07:21:02;;;;;;;0.60;0.50;;;23.90;63.20;;;;;;4912424;29;20639;-60
2022/08/12 07:23:29;;;;;;;0.25;0.25;;;24.00;62.90;;;;;;4915320;29;20038;-60
2022/08/12 07:26:00;;;;;;;0.10;0.10;;;24.10;63.20;;;;;;4931844;29;20042;-59
2022/08/12 07:28:32;;;;;;;1.02;0.60;;;24.20;62.70;;;;;;4910712;29;20039;-59
2022/08/12 07:30:58;;;;;;;41.58;2.40;;;24.30;62.40;;;;;;4932003;29;20055;-59
2022/08/12 07:33:27;;;;;;;0.00;0.00;;;24.40;62.00;;;;;;4914079;29;20059;-59
2022/08/12 07:35:55;;;;;;;0.40;0.40;;;24.50;61.90;;;;;;4917998;29;20031;-60
2022/08/12 07:38:26;;;;;;;0.00;0.00;;;24.60;61.40;;;;;;4928655;29;20535;-60
2022/08/12 07:41:16;;;;;;;0.08;0.08;;;24.70;61.20;;;;;;4913642;29;20032;-61
2022/08/12 07:43:55;;;;;;;0.88;0.60;;;24.80;61.40;;;;;;4927400;29;20580;-60
2022/08/12 07:46:26;;;;;;;0.28;0.28;;;24.90;60.90;;;;;;4927676;29;20180;-61
2022/08/12 07:48:56;;;;;;;0.17;0.10;;;24.90;60.50;;;;;;4917904;29;20488;-59
2022/08/12 07:51:24;;;;;;;0.28;0.28;;;25.00;60.20;;;;;;4935665;29;20038;-60
2022/08/12 07:53:51;;;;;;;0.00;0.00;;;25.10;60.50;;;;;;4935062;29;20044;-60
2022/08/12 07:56:17;;;;;;;0.00;0.00;;;25.10;60.10;;;;;;4931115;29;20032;-61
2022/08/12 07:58:44;;;;;;;0.00;0.00;;;25.20;60.20;;;;;;4939880;23;20069;-66
2022/08/12 08:01:15;;;;;;;0.00;0.00;;;25.30;59.70;;;;;;4958917;28;20027;-65
2022/08/12 08:06:32;;;;;;;0.57;0.40;;;25.40;59.50;;;;;;4956937;28;20118;-67
2022/08/12 08:09:01;;;;;;;0.22;0.20;;;25.60;59.20;;;;;;4968410;28;20034;-66
2022/08/12 08:14:12;;;;;;;0.35;0.35;;;25.60;58.70;;;;;;4958836;28;20030;-66
2022/08/12 08:16:41;;;;;;;1.05;0.52;;;25.70;58.70;;;;;;4955439;28;20027;-67
2022/08/12 08:19:22;;;;;;;0.05;0.03;;;25.80;58.90;;;;;;4951111;28;20029;-66
2022/08/12 08:21:54;;;;;;;0.00;0.00;;;25.90;58.50;;;;;;4949746;28;20118;-67
2022/08/12 08:24:25;;;;;;;0.28;0.17;;;26.00;58.50;;;;;;4952918;28;20043;-67
2022/08/12 08:26:54;;;;;;;0.00;0.00;;;26.00;58.00;;;;;;4952628;28;20035;-67
2022/08/12 08:29:23;;;;;;;0.15;0.15;;;26.10;58.30;;;;;;4940163;29;20035;-67
2022/08/12 08:31:56;;;;;;;0.40;0.40;;;26.20;57.90;;;;;;4965645;28;20030;-67
2022/08/12 08:34:25;;;;;;;0.05;0.05;;;26.20;58.00;;;;;;4969173;28;20063;-66
2022/08/12 08:36:51;;;;;;;0.70;0.25;;;26.10;58.20;;;;;;4956696;28;20035;-67
2022/08/12 08:39:20;;;;;;;0.03;0.03;;;26.20;58.30;;;;;;4961439;28;20027;-67
2022/08/12 08:44:35;;;;;;;0.03;0.00;;;26.20;58.80;;;;;;4964809;28;20476;-67
2022/08/12 08:47:04;;;;;;;0.10;0.10;;;26.40;57.80;;;;;;4970849;28;20550;-68
2022/08/12 08:49:30;;;;;;;0.20;0.17;;;26.50;57.90;;;;;;4941726;29;20042;-66
2022/08/12 08:51:56;;;;;;;2.47;1.15;;;26.50;57.40;;;;;;4969387;28;20090;-66
2022/08/12 08:54:23;;;;;;;0.28;0.08;;;26.50;57.00;;;;;;4963194;28;20310;-66
2022/08/12 08:56:49;;;;;;;0.47;0.32;;;26.50;56.90;;;;;;4969359;28;20041;-66
2022/08/12 08:59:18;;;;;;;0.55;0.38;;;26.70;57.10;;;;;;4959998;28;20034;-66
2022/08/12 09:01:44;;;;;;;12.35;0.45;;;26.80;56.90;;;;;;4959773;28;20134;-65
2022/08/12 09:04:12;;;;;;;0.52;0.47;;;26.90;56.50;;;;;;4942906;29;20091;-65
2022/08/12 09:06:40;;;;;;;0.70;0.30;;;27.10;56.00;;;;;;4956652;28;20113;-65
2022/08/12 09:09:07;;;;;;;0.00;0.00;;;27.20;56.40;;;;;;4942966;28;20110;-66
2022/08/12 09:14:17;;;;;;;0.40;0.40;;;27.40;55.90;;;;;;4957002;28;20035;-67
2022/08/12 09:16:48;;;;;;;0.32;0.28;;;27.40;54.90;;;;;;4950971;28;20775;-67
2022/08/12 09:19:14;;;;;;;0.17;0.10;;;27.50;54.70;;;;;;4942694;29;20503;-67
2022/08/12 09:21:40;;;;;;;0.25;0.10;;;27.60;54.70;;;;;;4936178;29;20038;-67
2022/08/12 09:24:07;;;;;;;4.80;0.55;;;27.60;53.70;;;;;;4959649;28;20058;-67
2022/08/12 09:26:36;;;;;;;1.05;0.55;;;27.70;53.70;;;;;;4953309;28;20070;-65
2022/08/12 09:29:02;;;;;;;0.00;0.00;;;27.70;53.80;;;;;;4956823;28;20039;-66
2022/08/12 09:31:29;;;;;;;0.35;0.32;;;27.80;53.60;;;;;;4956784;28;20038;-66
2022/08/12 09:33:55;;;;;;;0.10;0.00;;;28.00;53.80;;;;;;4948804;28;20036;-65
2022/08/12 09:36:21;;;;;;;0.03;0.03;;;28.00;53.80;;;;;;4969104;28;20054;-66
2022/08/12 09:38:47;;;;;;;0.00;0.00;;;28.10;53.00;;;;;;4962532;28;20468;-67
2022/08/12 09:41:14;;;;;;;0.13;0.13;;;28.10;52.90;;;;;;4951803;28;20039;-67
2022/08/12 09:46:33;;;;;;;0.00;0.00;;;28.50;52.50;;;;;;4969328;28;20498;-67
2022/08/12 09:48:59;;;;;;;0.00;0.00;;;28.50;52.20;;;;;;4944187;28;20054;-67
2022/08/12 09:51:26;;;;;;;0.00;0.00;;;28.60;52.30;;;;;;4951310;28;20463;-67
2022/08/12 09:53:52;;;;;;;0.10;0.10;;;28.60;52.00;;;;;;4957669;28;20408;-67
2022/08/12 09:56:20;;;;;;;0.75;0.45;;;28.70;52.30;;;;;;4972257;28;20058;-67
2022/08/12 09:58:46;;;;;;;0.10;0.10;;;28.80;51.60;;;;;;4945001;28;20113;-67
2022/08/12 10:01:12;;;;;;;0.10;0.10;;;28.70;51.50;;;;;;4966856;28;20023;-67
2022/08/12 10:03:42;;;;;;;0.80;0.80;;;28.90;52.00;;;;;;4958388;28;20031;-67
2022/08/12 10:06:09;;;;;;;0.10;0.10;;;29.10;52.00;;;;;;4951951;28;20031;-67
2022/08/12 10:08:37;;;;;;;0.10;0.00;;;29.20;51.60;;;;;;4959087;28;20035;-68
2022/08/12 10:13:54;;;;;;;6.72;0.57;;;29.30;52.30;;;;;;4959699;28;20396;-68
2022/08/12 10:16:31;;;;;;;0.00;0.00;;;29.60;51.40;;;;;;4939460;29;20113;-68
2022/08/12 10:19:02;;;;;;;0.50;0.47;;;29.60;50.80;;;;;;4962139;28;20022;-67
2022/08/12 10:21:35;;;;;;;0.30;0.28;;;29.60;50.20;;;;;;4969458;28;20026;-68
2022/08/12 10:24:07;;;;;;;0.20;0.20;;;29.30;50.60;;;;;;4942123;28;20042;-62
2022/08/12 10:29:38;;;;;;;0.00;0.00;;;29.60;50.60;;;;;;4962289;28;20106;-63
2022/08/12 10:32:11;;;;;;;0.00;0.00;;;29.60;50.70;;;;;;4952502;28;20031;-64
2022/08/12 10:34:38;;;;;;;0.05;0.05;;;29.80;51.20;;;;;;4966933;28;20594;-64
2022/08/12 10:37:05;;;;;;;0.00;0.00;;;30.10;50.70;;;;;;4970310;28;20027;-64
2022/08/12 10:39:36;;;;;;;0.00;0.00;;;30.20;49.80;;;;;;4956520;28;20030;-64
2022/08/12 10:44:59;;;;;;;0.10;0.10;;;30.20;50.20;;;;;;4963017;28;20031;-65
2022/08/12 10:47:34;;;;;;;0.00;0.00;;;29.80;50.10;;;;;;4968795;28;20042;-64
2022/08/12 10:50:00;;;;;;;0.03;0.03;;;30.20;50.40;;;;;;4891842;28;20048;-64
2022/08/12 10:52:30;;;;;;;0.00;0.00;;;30.40;50.30;;;;;;4950589;28;20031;-64
2022/08/12 10:54:57;;;;;;;;;;;30.20;50.40;;;;;;4959249;28;20030;-64
2022/08/12 10:57:25;;;;;;;0.00;0.00;;;30.20;50.30;;;;;;4947616;28;19914;-64
2022/08/12 10:59:56;;;;;;;0.13;0.00;;;30.40;50.70;;;;;;4946404;28;20138;-64
2022/08/12 11:02:24;;;;;;;0.75;0.55;;;30.50;50.60;;;;;;4952034;28;20486;-64
2022/08/12 11:04:50;;;;;;;0.08;0.08;;;30.40;49.80;;;;;;4964291;28;20042;-64
2022/08/12 11:07:16;;;;;;;0.05;0.05;;;30.40;51.60;;;;;;4959659;28;20059;-64
2022/08/12 11:09:43;;;;;;;0.25;0.17;;;30.70;50.40;;;;;;4962761;28;20109;-65
2022/08/12 11:12:09;;;;;;;0.15;0.15;;;30.90;49.60;;;;;;4963267;28;20035;-71
2022/08/12 11:14:40;;;;;;;0.28;0.20;;;30.90;48.80;;;;;;4968264;28;20141;-71
2022/08/12 11:17:11;;;;;;;0.10;0.00;;;30.90;48.50;;;;;;4971589;28;20120;-72
2022/08/12 11:19:39;;;;;;;0.00;0.00;;;30.80;48.90;;;;;;4965029;28;20077;-72
2022/08/12 11:22:08;;;;;;;0.10;0.10;;;30.70;48.90;;;;;;4971824;28;20062;-72
2022/08/12 11:24:34;;;;;;;0.10;0.10;;;30.50;48.90;;;;;;4946252;28;20036;-71
2022/08/12 11:27:05;;;;;;;0.75;0.38;;;30.60;48.80;;;;;;4946069;28;20054;-71
2022/08/12 11:29:32;;;;;;;0.30;0.30;;;30.90;48.60;;;;;;4962714;28;20865;-71
2022/08/12 11:31:58;;;;;;;0.00;0.00;;;31.00;48.30;;;;;;4972903;28;20484;-71
2022/08/12 11:34:24;;;;;;;2.13;0.32;;;31.20;48.30;;;;;;4963191;28;20075;-71
2022/08/12 11:37:01;;;;;;;0.10;0.10;;;31.40;48.70;;;;;;4973605;28;20097;-71
2022/08/12 11:39:27;;;;;;;0.20;0.20;;;31.80;48.70;;;;;;4956805;28;20027;-71
2022/08/12 11:41:53;;;;;;;0.05;0.05;;;32.00;46.90;;;;;;4960626;28;20078;-71
2022/08/12 11:44:19;;;;;;;0.43;0.35;;;31.50;46.90;;;;;;4960250;28;20030;-71
2022/08/12 11:46:45;;;;;;;0.03;0.03;;;31.70;47.20;;;;;;4955780;28;20317;-72
2022/08/12 11:49:11;;;;;;;0.15;0.10;;;31.90;46.60;;;;;;4961784;28;20086;-71
2022/08/12 11:51:37;;;;;;;0.10;0.10;;;31.50;47.80;;;;;;4957318;28;20043;-72
2022/08/12 11:54:04;;;;;;;0.10;0.10;;;31.70;47.20;;;;;;4955784;28;20042;-72
2022/08/12 11:56:31;;;;;;;0.17;0.17;;;31.60;47.60;;;;;;4966899;28;20070;-71
2022/08/12 11:58:56;;;;;;;0.00;0.00;;;31.70;46.60;;;;;;4945500;28;20031;-71
2022/08/12 12:01:22;;;;;;;0.20;0.10;;;32.10;47.20;;;;;;4952067;28;20034;-71
2022/08/12 12:03:48;;;;;;;0.65;0.32;;;32.50;47.10;;;;;;4938210;28;20031;-72
2022/08/12 12:06:16;;;;;;;0.00;0.00;;;32.50;46.80;;;;;;4952116;28;20074;-69
2022/08/12 12:08:43;;;;;;;1.05;0.98;;;32.10;46.60;;;;;;4952680;28;20035;-69
2022/08/12 12:11:09;;;;;;;0.00;0.00;;;32.00;47.20;;;;;;4954080;29;20031;-70
2022/08/12 12:13:34;;;;;;;0.40;0.40;;;32.70;46.80;;;;;;4959470;28;20126;-73
2022/08/12 12:16:00;;;;;;;0.20;0.20;;;33.00;45.70;;;;;;4974762;28;20026;-69
2022/08/12 12:18:30;;;;;;;0.00;0.00;;;33.30;45.70;;;;;;4974617;28;20101;-70
2022/08/12 12:21:00;;;;;;;0.10;0.10;;;32.40;46.00;;;;;;4972332;28;20031;-70
2022/08/12 12:23:27;;;;;;;0.13;0.13;;;32.60;46.10;;;;;;4974142;28;20035;-70
2022/08/12 12:25:53;;;;;;;0.05;0.03;;;32.80;45.80;;;;;;4974815;28;20030;-70
2022/08/12 12:28:19;;;;;;;0.43;0.30;;;33.10;46.30;;;;;;4974095;28;20034;-70
2022/08/12 12:30:45;;;;;;;0.28;0.28;;;32.70;45.70;;;;;;4956532;28;20120;-69
2022/08/12 12:33:12;;;;;;;0.00;0.00;;;32.90;46.10;;;;;;4972609;28;20027;-69
2022/08/12 12:35:39;;;;;;;0.30;0.22;;;33.30;45.70;;;;;;4974686;28;20031;-69
2022/08/12 12:38:11;;;;;;;0.30;0.20;;;33.20;45.50;;;;;;4972875;28;20030;-69
2022/08/12 12:40:39;;;;;;;0.20;0.10;;;32.90;46.20;;;;;;4956463;28;20055;-70
2022/08/12 12:43:05;;;;;;;0.22;0.17;;;32.90;46.00;;;;;;4971753;28;20031;-70
2022/08/12 12:45:33;;;;;;;0.10;0.10;;;33.30;45.90;;;;;;4937467;29;20038;-70
2022/08/12 12:48:07;;;;;;;0.75;0.45;;;32.90;45.90;;;;;;4937941;29;20134;-70
2022/08/12 12:50:45;;;;;;;0.80;0.32;;;33.40;45.90;;;;;;4937766;29;20032;-70
2022/08/12 12:53:17;;;;;;;0.10;0.00;;;33.90;46.70;;;;;;4936837;29;20027;-70
2022/08/12 12:55:45;;;;;;;0.10;0.00;;;33.60;45.50;;;;;;4938075;29;20166;-71
2022/08/12 12:58:15;;;;;;;1.75;0.75;;;33.70;44.90;;;;;;4954466;29;20122;-71
2022/08/12 13:00:43;;;;;;;0.00;0.00;;;34.00;45.90;;;;;;4937023;29;20027;-71
2022/08/12 13:03:18;;;;;;;0.30;0.22;;;34.20;44.60;;;;;;4937185;29;20032;-71
2022/08/12 13:05:44;;;;;;;0.17;0.17;;;34.40;45.20;;;;;;4937642;29;20035;-71
2022/08/12 13:08:24;;;;;;;0.00;0.00;;;34.80;44.50;;;;;;4954839;29;20512;-71
2022/08/12 13:10:51;;;;;;;0.57;0.08;;;34.60;44.00;;;;;;4954236;29;20038;-69
2022/08/12 13:13:18;;;;;;;0.00;0.00;;;34.20;44.70;;;;;;4952887;29;20027;-71
2022/08/12 13:15:47;;;;;;;1.00;0.43;;;34.40;44.80;;;;;;4954056;29;20086;-70
2022/08/12 13:18:14;;;;;;;0.20;0.20;;;34.40;45.60;;;;;;4936937;29;20027;-69
2022/08/12 13:20:42;;;;;;;0.00;0.00;;;34.50;44.40;;;;;;4953903;29;20365;-69
2022/08/12 13:23:09;;;;;;;0.00;0.00;;;33.60;44.50;;;;;;4952393;29;20050;-70
2022/08/12 13:25:35;;;;;;;0.00;0.00;;;33.30;44.40;;;;;;4936487;29;20117;-70
2022/08/12 13:28:02;;;;;;;0.13;0.10;;;33.40;44.80;;;;;;4954153;29;20034;-70
2022/08/12 13:30:29;;;;;;;0.10;0.10;;;33.80;44.50;;;;;;4936309;29;20491;-70
2022/08/12 13:32:58;;;;;;;0.30;0.25;;;34.20;44.60;;;;;;4952664;28;20063;-70
2022/08/12 13:35:34;;;;;;;0.00;0.00;;;34.70;44.30;;;;;;4953382;29;20027;-70
2022/08/12 13:38:00;;;;;;;1.08;0.20;;;34.80;44.10;;;;;;4934765;29;20060;-71
2022/08/12 13:40:30;;;;;;;0.30;0.17;;;35.50;43.40;;;;;;4934282;29;20023;-71
2022/08/12 13:42:57;;;;;;;0.00;0.00;;;35.50;43.30;;;;;;4934033;28;20407;-70
2022/08/12 13:45:29;;;;;;;0.00;0.00;;;34.20;43.40;;;;;;4936380;29;20126;-70
2022/08/12 13:48:00;;;;;;;0.30;0.30;;;34.40;44.20;;;;;;4952401;29;20039;-70
2022/08/12 13:50:35;;;;;;;0.10;0.10;;;34.20;43.40;;;;;;4936740;29;20028;-70
2022/08/12 13:53:11;;;;;;;0.40;0.30;;;35.10;43.10;;;;;;4951956;28;20038;-70
2022/08/12 13:55:42;;;;;;;2.53;0.85;;;35.90;43.10;;;;;;4939291;28;20027;-69
2022/08/12 13:58:10;;;;;;;1.98;0.30;;;36.60;42.40;;;;;;4987207;23;20050;-74
2022/08/12 14:00:37;;;;;;;0.40;0.32;;;36.90;42.80;;;;;;4980212;28;20034;-73
2022/08/12 14:03:03;;;;;;;0.15;0.15;;;35.90;41.80;;;;;;4973332;28;20038;-75
2022/08/12 14:05:32;;;;;;;0.15;0.15;;;35.70;42.70;;;;;;4955662;28;20043;-73
2022/08/12 14:08:06;;;;;;;1.90;0.30;;;34.30;42.90;;;;;;4972442;28;20045;-74
2022/08/12 14:10:36;;;;;;;0.03;0.03;;;34.00;43.90;;;;;;4986778;28;20463;-75
2022/08/12 14:13:08;;;;;;;0.65;0.40;;;34.80;43.50;;;;;;4971955;28;20340;-75
2022/08/12 14:15:46;;;;;;;0.20;0.10;;;35.00;43.30;;;;;;4972083;28;20498;-75
2022/08/12 14:18:33;;;;;;;12.60;0.50;;;35.30;42.70;;;;;;4971069;28;20447;-75
2022/08/12 14:21:04;;;;;;;0.08;0.08;;;35.40;43.80;;;;;;4972175;28;20030;-76
2022/08/12 14:23:34;;;;;;;0.28;0.28;;;35.60;42.90;;;;;;4972201;28;20074;-75
2022/08/12 14:26:04;;;;;;;2.55;0.22;;;35.50;43.10;;;;;;4972028;28;20661;-75
2022/08/12 14:28:33;;;;;;;0.00;0.00;;;36.30;43.30;;;;;;4972340;28;20082;-75
2022/08/12 14:31:05;;;;;;;;;;;36.60;42.20;;;;;;4971784;28;20097;-75
2022/08/12 14:33:36;;;;;;;0.00;0.00;;;37.60;41.50;;;;;;4971990;28;19918;-75
2022/08/12 14:36:09;;;;;;;0.20;0.10;;;37.30;41.40;;;;;;4971906;28;20062;-75
2022/08/12 14:38:43;;;;;;;0.35;0.10;;;36.90;41.50;;;;;;4972068;28;20415;-75
2022/08/12 14:41:12;;;;;;;0.00;0.00;;;37.80;40.80;;;;;;4987351;28;20026;-75
2022/08/12 14:43:40;;;;;;;0.00;0.00;;;38.40;40.80;;;;;;4964795;28;20042;-75
2022/08/12 14:46:15;;;;;;;0.05;0.05;;;39.00;40.30;;;;;;4919864;29;20487;-75
2022/08/12 14:48:45;;;;;;;0.40;0.30;;;38.20;40.90;;;;;;4936327;29;20028;-75
2022/08/12 14:51:16;;;;;;;0.22;0.20;;;37.70;41.20;;;;;;4952746;29;20480;-74
2022/08/12 14:53:44;;;;;;;0.47;0.35;;;36.40;41.20;;;;;;4952446;28;20483;-75